sensor_id;sensor_type;location;lat;lon;timestamp;pressure;altitude;pressure_sealevel;temperature;humidity
74230;BME280;62589;12.568;99.958;2023-04-03T00:07:08;100667.47;;;33.03;52.63
74230;BME280;62589;12.568;99.958;2023-04-03T00:09:35;100673.03;;;33.06;52.69
74230;BME280;62589;12.568;99.958;2023-04-03T00:12:01;100687.34;;;33.08;52.68
74230;BME280;62589;12.568;99.958;2023-04-03T00:14:28;100682.59;;;33.12;52.66
74230;BME280;62589;12.568;99.958;2023-04-03T00:16:54;100681.41;;;33.13;52.53
74230;BME280;62589;12.568;99.958;2023-04-03T00:19:21;100694.94;;;33.15;52.51
74230;BME280;62589;12.568;99.958;2023-04-03T00:21:47;100690.56;;;33.18;52.50
74230;BME280;62589;12.568;99.958;2023-04-03T00:24:14;100698.13;;;33.21;52.49
74230;BME280;62589;12.568;99.958;2023-04-03T00:26:40;100700.53;;;33.26;52.68
74230;BME280;62589;12.568;99.958;2023-04-03T00:29:06;100700.16;;;33.31;52.40
74230;BME280;62589;12.568;99.958;2023-04-03T00:31:33;100716.50;;;33.36;52.20
74230;BME280;62589;12.568;99.958;2023-04-03T00:33:59;100714.53;;;33.40;52.25
74230;BME280;62589;12.568;99.958;2023-04-03T00:36:26;100724.47;;;33.48;51.96
74230;BME280;62589;12.568;99.958;2023-04-03T00:38:52;100730.44;;;33.54;52.01
74230;BME280;62589;12.568;99.958;2023-04-03T00:41:18;100730.88;;;33.59;51.74
74230;BME280;62589;12.568;99.958;2023-04-03T00:43:45;100736.84;;;33.65;52.00
74230;BME280;62589;12.568;99.958;2023-04-03T00:46:12;100737.63;;;33.69;51.39
74230;BME280;62589;12.568;99.958;2023-04-03T00:48:46;100752.78;;;33.75;51.30
74230;BME280;62589;12.568;99.958;2023-04-03T00:51:16;100752.03;;;33.82;50.92
74230;BME280;62589;12.568;99.958;2023-04-03T00:56:27;100748.47;;;33.95;50.54
74230;BME280;62589;12.568;99.958;2023-04-03T00:59:03;100745.28;;;34.00;50.19
74230;BME280;62589;12.568;99.958;2023-04-03T01:01:31;100752.47;;;34.08;50.45
74230;BME280;62589;12.568;99.958;2023-04-03T01:04:01;100753.25;;;34.12;49.78
74230;BME280;62589;12.568;99.958;2023-04-03T01:06:33;100756.84;;;34.20;49.66
74230;BME280;62589;12.568;99.958;2023-04-03T01:09:01;100750.88;;;34.25;49.24
74230;BME280;62589;12.568;99.958;2023-04-03T01:11:28;100754.84;;;34.31;48.87
74230;BME280;62589;12.568;99.958;2023-04-03T01:13:54;100756.84;;;34.34;48.33
74230;BME280;62589;12.568;99.958;2023-04-03T01:16:21;100752.88;;;34.39;47.98
74230;BME280;62589;12.568;99.958;2023-04-03T01:18:47;100764.03;;;34.46;47.63
74230;BME280;62589;12.568;99.958;2023-04-03T01:24:36;100769.56;;;34.64;47.07
74230;BME280;62589;12.568;99.958;2023-04-03T01:27:06;100781.13;;;34.66;46.88
74230;BME280;62589;12.568;99.958;2023-04-03T01:29:35;100768.34;;;34.72;46.67
74230;BME280;62589;12.568;99.958;2023-04-03T01:32:03;100778.34;;;34.80;46.23
74230;BME280;62589;12.568;99.958;2023-04-03T01:34:31;100779.13;;;34.88;45.81
74230;BME280;62589;12.568;99.958;2023-04-03T01:36:57;100778.28;;;34.94;45.39
74230;BME280;62589;12.568;99.958;2023-04-03T01:39:24;100785.06;;;35.00;44.78
74230;BME280;62589;12.568;99.958;2023-04-03T01:41:51;100782.66;;;35.06;45.04
74230;BME280;62589;12.568;99.958;2023-04-03T01:44:18;100789.41;;;35.12;45.07
74230;BME280;62589;12.568;99.958;2023-04-03T01:46:45;100788.59;;;35.19;45.15
74230;BME280;62589;12.568;99.958;2023-04-03T01:49:12;100792.94;;;35.27;44.52
74230;BME280;62589;12.568;99.958;2023-04-03T01:51:38;100782.19;;;35.32;45.19
74230;BME280;62589;12.568;99.958;2023-04-03T01:54:05;100790.53;;;35.39;44.74
74230;BME280;62589;12.568;99.958;2023-04-03T01:56:31;100800.06;;;35.45;44.76
74230;BME280;62589;12.568;99.958;2023-04-03T01:58:58;100805.22;;;35.54;44.55
74230;BME280;62589;12.568;99.958;2023-04-03T02:01:24;100800.38;;;35.62;44.39
74230;BME280;62589;12.568;99.958;2023-04-03T02:03:51;100808.75;;;35.69;44.75
74230;BME280;62589;12.568;99.958;2023-04-03T02:06:18;100804.31;;;35.75;44.24
74230;BME280;62589;12.568;99.958;2023-04-03T02:08:44;100807.50;;;35.80;43.59
74230;BME280;62589;12.568;99.958;2023-04-03T02:11:11;100810.66;;;35.86;42.79
74230;BME280;62589;12.568;99.958;2023-04-03T02:13:37;100811.41;;;35.94;42.33
74230;BME280;62589;12.568;99.958;2023-04-03T02:16:23;100818.13;;;36.07;42.17
74230;BME280;62589;12.568;99.958;2023-04-03T02:18:49;100822.88;;;36.10;41.99
74230;BME280;62589;12.568;99.958;2023-04-03T02:21:16;100821.25;;;36.16;42.00
74230;BME280;62589;12.568;99.958;2023-04-03T02:23:43;100823.59;;;36.21;41.84
74230;BME280;62589;12.568;99.958;2023-04-03T02:26:11;100820.00;;;36.28;41.71
74230;BME280;62589;12.568;99.958;2023-04-03T02:28:38;100821.16;;;36.34;41.54
74230;BME280;62589;12.568;99.958;2023-04-03T02:31:05;100820.66;;;36.42;41.37
74230;BME280;62589;12.568;99.958;2023-04-03T02:33:33;100821.03;;;36.48;40.57
74230;BME280;62589;12.568;99.958;2023-04-03T02:36:02;100822.16;;;36.58;40.60
74230;BME280;62589;12.568;99.958;2023-04-03T02:38:29;100822.06;;;36.65;40.34
74230;BME280;62589;12.568;99.958;2023-04-03T02:41:07;100820.41;;;36.71;39.70
74230;BME280;62589;12.568;99.958;2023-04-03T02:43:34;100823.59;;;36.76;39.43
74230;BME280;62589;12.568;99.958;2023-04-03T02:46:01;100822.72;;;36.83;39.70
74230;BME280;62589;12.568;99.958;2023-04-03T02:48:28;100822.66;;;36.90;39.49
74230;BME280;62589;12.568;99.958;2023-04-03T02:50:54;100817.81;;;36.94;38.99
74230;BME280;62589;12.568;99.958;2023-04-03T02:53:21;100827.69;;;37.02;39.00
74230;BME280;62589;12.568;99.958;2023-04-03T02:55:47;100824.06;;;37.05;38.38
74230;BME280;62589;12.568;99.958;2023-04-03T02:58:14;100825.63;;;37.10;38.06
74230;BME280;62589;12.568;99.958;2023-04-03T03:00:40;100831.97;;;37.17;37.86
74230;BME280;62589;12.568;99.958;2023-04-03T03:03:07;100826.28;;;37.25;37.67
74230;BME280;62589;12.568;99.958;2023-04-03T03:05:33;100821.44;;;37.29;36.94
74230;BME280;62589;12.568;99.958;2023-04-03T03:08:00;100828.56;;;37.37;36.90
74230;BME280;62589;12.568;99.958;2023-04-03T03:10:26;100824.06;;;37.43;36.59
74230;BME280;62589;12.568;99.958;2023-04-03T03:12:53;100821.19;;;37.50;36.20
74230;BME280;62589;12.568;99.958;2023-04-03T03:15:19;100826.69;;;37.57;36.36
74230;BME280;62589;12.568;99.958;2023-04-03T03:17:45;100819.03;;;37.61;34.80
74230;BME280;62589;12.568;99.958;2023-04-03T03:20:12;100820.16;;;37.67;35.39
74230;BME280;62589;12.568;99.958;2023-04-03T03:22:41;100814.91;;;37.73;34.61
74230;BME280;62589;12.568;99.958;2023-04-03T03:25:08;100818.81;;;37.79;34.81
74230;BME280;62589;12.568;99.958;2023-04-03T03:27:34;100811.13;;;37.83;34.78
74230;BME280;62589;12.568;99.958;2023-04-03T03:30:01;100812.25;;;37.89;33.95
74230;BME280;62589;12.568;99.958;2023-04-03T03:32:27;100811.38;;;37.96;33.61
74230;BME280;62589;12.568;99.958;2023-04-03T03:34:53;100808.94;;;37.98;32.82
74230;BME280;62589;12.568;99.958;2023-04-03T03:37:20;100812.47;;;38.02;31.43
74230;BME280;62589;12.568;99.958;2023-04-03T03:39:46;100805.16;;;38.08;32.04
74230;BME280;62589;12.568;99.958;2023-04-03T03:42:13;100803.88;;;38.16;31.85
74230;BME280;62589;12.568;99.958;2023-04-03T03:44:39;100803.41;;;38.21;31.80
74230;BME280;62589;12.568;99.958;2023-04-03T03:47:05;100788.06;;;38.26;31.22
74230;BME280;62589;12.568;99.958;2023-04-03T03:49:32;100781.56;;;38.32;29.98
74230;BME280;62589;12.568;99.958;2023-04-03T03:51:59;100777.84;;;38.39;31.01
74230;BME280;62589;12.568;99.958;2023-04-03T03:54:25;100785.34;;;38.45;31.25
74230;BME280;62589;12.568;99.958;2023-04-03T03:56:52;100770.47;;;38.48;30.55
74230;BME280;62589;12.568;99.958;2023-04-03T03:59:18;100773.16;;;38.56;30.99
74230;BME280;62589;12.568;99.958;2023-04-03T04:01:45;100768.28;;;38.60;31.94
74230;BME280;62589;12.568;99.958;2023-04-03T04:04:11;100785.78;;;38.67;32.87
74230;BME280;62589;12.568;99.958;2023-04-03T04:06:37;100774.50;;;38.71;33.16
74230;BME280;62589;12.568;99.958;2023-04-03T04:09:04;100770.09;;;38.70;33.37
74230;BME280;62589;12.568;99.958;2023-04-03T04:11:30;100774.00;;;38.76;33.42
74230;BME280;62589;12.568;99.958;2023-04-03T04:13:59;100768.75;;;38.78;32.59
74230;BME280;62589;12.568;99.958;2023-04-03T04:16:25;100769.47;;;38.82;33.27
74230;BME280;62589;12.568;99.958;2023-04-03T04:18:51;100763.06;;;38.81;33.75
74230;BME280;62589;12.568;99.958;2023-04-03T04:21:18;100760.69;;;38.80;34.14
74230;BME280;62589;12.568;99.958;2023-04-03T04:23:44;100754.59;;;38.85;33.61
74230;BME280;62589;12.568;99.958;2023-04-03T04:26:11;100759.78;;;38.87;34.12
74230;BME280;62589;12.568;99.958;2023-04-03T04:28:37;100756.88;;;38.90;34.38
74230;BME280;62589;12.568;99.958;2023-04-03T04:31:04;100755.22;;;38.93;34.28
74230;BME280;62589;12.568;99.958;2023-04-03T04:33:30;100747.53;;;38.97;34.43
74230;BME280;62589;12.568;99.958;2023-04-03T04:35:57;100736.28;;;38.97;34.17
74230;BME280;62589;12.568;99.958;2023-04-03T04:38:23;100739.84;;;39.01;34.10
74230;BME280;62589;12.568;99.958;2023-04-03T04:40:50;100743.03;;;39.03;34.71
74230;BME280;62589;12.568;99.958;2023-04-03T04:43:16;100741.88;;;39.00;33.64
74230;BME280;62589;12.568;99.958;2023-04-03T04:45:43;100736.25;;;39.00;34.07
74230;BME280;62589;12.568;99.958;2023-04-03T04:48:10;100732.94;;;39.05;34.14
74230;BME280;62589;12.568;99.958;2023-04-03T04:50:36;100730.03;;;39.09;34.30
74230;BME280;62589;12.568;99.958;2023-04-03T04:53:03;100724.16;;;39.03;33.95
74230;BME280;62589;12.568;99.958;2023-04-03T04:55:30;100724.97;;;39.04;32.75
74230;BME280;62589;12.568;99.958;2023-04-03T04:57:56;100722.16;;;39.04;32.33
74230;BME280;62589;12.568;99.958;2023-04-03T05:00:23;100718.47;;;39.07;31.73
74230;BME280;62589;12.568;99.958;2023-04-03T05:02:49;100714.09;;;39.06;31.29
74230;BME280;62589;12.568;99.958;2023-04-03T05:05:16;100707.69;;;39.05;31.75
74230;BME280;62589;12.568;99.958;2023-04-03T05:07:42;100702.44;;;39.07;32.40
74230;BME280;62589;12.568;99.958;2023-04-03T05:10:09;100691.63;;;39.06;31.18
74230;BME280;62589;12.568;99.958;2023-04-03T05:12:36;100683.28;;;39.02;31.06
74230;BME280;62589;12.568;99.958;2023-04-03T05:15:02;100686.81;;;39.06;31.49
74230;BME280;62589;12.568;99.958;2023-04-03T05:17:29;100679.97;;;39.07;31.37
74230;BME280;62589;12.568;99.958;2023-04-03T05:19:55;100674.34;;;39.07;30.95
74230;BME280;62589;12.568;99.958;2023-04-03T05:22:21;100677.16;;;39.07;29.81
74230;BME280;62589;12.568;99.958;2023-04-03T05:24:48;100667.47;;;39.08;30.20
74230;BME280;62589;12.568;99.958;2023-04-03T05:27:14;100664.69;;;39.08;30.06
74230;BME280;62589;12.568;99.958;2023-04-03T05:29:41;100659.97;;;39.05;29.65
74230;BME280;62589;12.568;99.958;2023-04-03T05:32:10;100650.31;;;39.06;29.94
74230;BME280;62589;12.568;99.958;2023-04-03T05:34:37;100649.53;;;39.06;30.53
74230;BME280;62589;12.568;99.958;2023-04-03T05:37:03;100644.16;;;39.11;30.35
74230;BME280;62589;12.568;99.958;2023-04-03T05:39:30;100636.44;;;39.15;30.98
74230;BME280;62589;12.568;99.958;2023-04-03T05:41:57;100640.41;;;39.18;31.40
74230;BME280;62589;12.568;99.958;2023-04-03T05:44:24;100641.72;;;39.13;28.68
74230;BME280;62589;12.568;99.958;2023-04-03T05:46:50;100632.41;;;39.16;29.89
74230;BME280;62589;12.568;99.958;2023-04-03T05:49:17;100632.78;;;39.18;31.11
74230;BME280;62589;12.568;99.958;2023-04-03T05:51:43;100626.38;;;39.18;30.54
74230;BME280;62589;12.568;99.958;2023-04-03T05:54:30;100619.81;;;39.25;30.84
74230;BME280;62589;12.568;99.958;2023-04-03T05:56:57;100612.69;;;39.20;30.54
74230;BME280;62589;12.568;99.958;2023-04-03T05:59:23;100605.41;;;39.23;31.22
74230;BME280;62589;12.568;99.958;2023-04-03T06:01:49;100603.47;;;39.20;30.97
74230;BME280;62589;12.568;99.958;2023-04-03T06:04:16;100601.53;;;39.16;31.52
74230;BME280;62589;12.568;99.958;2023-04-03T06:06:53;100601.19;;;39.14;31.84
74230;BME280;62589;12.568;99.958;2023-04-03T06:09:22;100590.03;;;39.11;33.47
74230;BME280;62589;12.568;99.958;2023-04-03T06:11:50;100589.22;;;39.10;33.46
74230;BME280;62589;12.568;99.958;2023-04-03T06:14:17;100579.78;;;39.04;32.98
74230;BME280;62589;12.568;99.958;2023-04-03T06:16:43;100573.38;;;39.04;33.15
74230;BME280;62589;12.568;99.958;2023-04-03T06:19:11;100564.16;;;39.03;32.87
74230;BME280;62589;12.568;99.958;2023-04-03T06:21:38;100556.72;;;38.93;33.17
74230;BME280;62589;12.568;99.958;2023-04-03T06:24:06;100551.97;;;38.90;32.67
74230;BME280;62589;12.568;99.958;2023-04-03T06:26:34;100542.41;;;38.88;31.41
74230;BME280;62589;12.568;99.958;2023-04-03T06:29:01;100542.97;;;38.99;32.73
74230;BME280;62589;12.568;99.958;2023-04-03T06:31:28;100540.53;;;39.01;32.34
74230;BME280;62589;12.568;99.958;2023-04-03T06:33:54;100521.31;;;38.99;32.71
74230;BME280;62589;12.568;99.958;2023-04-03T06:36:22;100512.47;;;39.01;33.29
74230;BME280;62589;12.568;99.958;2023-04-03T06:38:48;100511.59;;;39.04;34.16
74230;BME280;62589;12.568;99.958;2023-04-03T06:41:15;100512.41;;;39.04;34.24
74230;BME280;62589;12.568;99.958;2023-04-03T06:43:43;100504.91;;;38.98;34.75
74230;BME280;62589;12.568;99.958;2023-04-03T06:46:18;100490.44;;;38.99;35.20
74230;BME280;62589;12.568;99.958;2023-04-03T06:48:45;100488.56;;;38.93;34.77
74230;BME280;62589;12.568;99.958;2023-04-03T06:51:28;100480.66;;;38.88;36.01
74230;BME280;62589;12.568;99.958;2023-04-03T06:53:57;100479.72;;;38.78;35.81
74230;BME280;62589;12.568;99.958;2023-04-03T06:56:25;100471.00;;;38.72;35.96
74230;BME280;62589;12.568;99.958;2023-04-03T06:58:53;100469.50;;;38.68;36.17
74230;BME280;62589;12.568;99.958;2023-04-03T07:01:28;100465.47;;;38.69;36.85
74230;BME280;62589;12.568;99.958;2023-04-03T07:03:56;100468.72;;;38.67;36.99
74230;BME280;62589;12.568;99.958;2023-04-03T07:06:23;100460.31;;;38.67;36.60
74230;BME280;62589;12.568;99.958;2023-04-03T07:08:52;100454.69;;;38.67;37.41
74230;BME280;62589;12.568;99.958;2023-04-03T07:11:19;100454.69;;;38.67;37.05
74230;BME280;62589;12.568;99.958;2023-04-03T07:13:46;100451.56;;;38.65;37.39
74230;BME280;62589;12.568;99.958;2023-04-03T07:16:12;100438.31;;;38.66;36.52
74230;BME280;62589;12.568;99.958;2023-04-03T07:18:39;100440.59;;;38.71;37.37
74230;BME280;62589;12.568;99.958;2023-04-03T07:21:05;100436.13;;;38.73;36.47
74230;BME280;62589;12.568;99.958;2023-04-03T07:23:32;100442.00;;;38.63;37.31
74230;BME280;62589;12.568;99.958;2023-04-03T07:25:59;100426.81;;;38.60;37.70
74230;BME280;62589;12.568;99.958;2023-04-03T07:28:25;100412.03;;;38.40;38.12
74230;BME280;62589;12.568;99.958;2023-04-03T07:30:59;100411.97;;;38.43;37.93
74230;BME280;62589;12.568;99.958;2023-04-03T07:33:27;100396.88;;;38.37;38.22
74230;BME280;62589;12.568;99.958;2023-04-03T07:35:53;100397.75;;;38.34;38.37
74230;BME280;62589;12.568;99.958;2023-04-03T07:38:20;100398.03;;;38.40;37.84
74230;BME280;62589;12.568;99.958;2023-04-03T07:40:48;100388.97;;;38.32;38.03
74230;BME280;62589;12.568;99.958;2023-04-03T07:43:16;100386.78;;;38.04;38.18
74230;BME280;62589;12.568;99.958;2023-04-03T07:45:44;100376.88;;;38.19;38.41
74230;BME280;62589;12.568;99.958;2023-04-03T07:48:12;100374.44;;;38.21;38.74
74230;BME280;62589;12.568;99.958;2023-04-03T07:50:42;100369.75;;;38.14;38.50
74230;BME280;62589;12.568;99.958;2023-04-03T07:53:09;100374.22;;;38.12;38.85
74230;BME280;62589;12.568;99.958;2023-04-03T07:55:36;100369.41;;;38.12;39.36
74230;BME280;62589;12.568;99.958;2023-04-03T07:58:11;100357.84;;;37.91;39.44
74230;BME280;62589;12.568;99.958;2023-04-03T08:03:39;100359.88;;;38.06;39.99
74230;BME280;62589;12.568;99.958;2023-04-03T08:06:07;100359.72;;;37.97;39.21
74230;BME280;62589;12.568;99.958;2023-04-03T08:08:34;100361.72;;;37.97;39.93
74230;BME280;62589;12.568;99.958;2023-04-03T08:11:01;100359.72;;;37.97;39.54
74230;BME280;62589;12.568;99.958;2023-04-03T08:13:29;100350.50;;;37.97;38.87
74230;BME280;62589;12.568;99.958;2023-04-03T08:15:56;100347.41;;;37.91;39.78
74230;BME280;62589;12.568;99.958;2023-04-03T08:18:24;100345.22;;;37.82;40.25
74230;BME280;62589;12.568;99.958;2023-04-03T08:20:52;100343.00;;;37.74;40.32
74230;BME280;62589;12.568;99.958;2023-04-03T08:23:19;100348.75;;;37.67;40.61
74230;BME280;62589;12.568;99.958;2023-04-03T08:25:45;100341.84;;;37.52;41.31
74230;BME280;62589;12.568;99.958;2023-04-03T08:28:12;100343.19;;;37.63;41.35
74230;BME280;62589;12.568;99.958;2023-04-03T08:30:40;100339.84;;;37.72;41.42
74230;BME280;62589;12.568;99.958;2023-04-03T08:33:07;100334.56;;;37.54;41.89
74230;BME280;62589;12.568;99.958;2023-04-03T08:35:38;100342.38;;;37.63;42.12
74230;BME280;62589;12.568;99.958;2023-04-03T08:38:07;100337.47;;;37.70;41.64
74230;BME280;62589;12.568;99.958;2023-04-03T08:40:33;100330.28;;;37.69;41.94
74230;BME280;62589;12.568;99.958;2023-04-03T08:46:00;100331.28;;;37.59;42.06
74230;BME280;62589;12.568;99.958;2023-04-03T08:48:31;100326.38;;;37.63;41.18
74230;BME280;62589;12.568;99.958;2023-04-03T08:51:03;100320.44;;;37.61;41.69
74230;BME280;62589;12.568;99.958;2023-04-03T08:53:34;100326.03;;;37.61;41.30
74230;BME280;62589;12.568;99.958;2023-04-03T08:56:08;100320.28;;;37.48;41.92
74230;BME280;62589;12.568;99.958;2023-04-03T09:01:26;100319.50;;;37.48;41.13
74230;BME280;62589;12.568;99.958;2023-04-03T09:03:53;100321.88;;;37.30;40.84
74230;BME280;62589;12.568;99.958;2023-04-03T09:06:23;100312.25;;;37.31;41.94
74230;BME280;62589;12.568;99.958;2023-04-03T09:09:10;100310.91;;;37.39;41.64
74230;BME280;62589;12.568;99.958;2023-04-03T09:14:58;100307.06;;;37.29;41.43
74230;BME280;62589;12.568;99.958;2023-04-03T09:17:47;100302.19;;;37.33;41.59
74230;BME280;62589;12.568;99.958;2023-04-03T09:26:24;100301.69;;;37.19;41.75
74230;BME280;62589;12.568;99.958;2023-04-03T09:28:55;100300.53;;;37.16;42.06
74230;BME280;62589;12.568;99.958;2023-04-03T09:31:27;100308.91;;;37.16;42.36
74230;BME280;62589;12.568;99.958;2023-04-03T09:33:59;100303.78;;;36.91;42.14
74230;BME280;62589;12.568;99.958;2023-04-03T09:36:55;100310.84;;;36.99;42.32
74230;BME280;62589;12.568;99.958;2023-04-03T09:39:25;100315.50;;;37.06;42.34
74230;BME280;62589;12.568;99.958;2023-04-03T09:42:04;100317.34;;;36.93;42.26
74230;BME280;62589;12.568;99.958;2023-04-03T09:44:34;100306.22;;;36.89;41.96
74230;BME280;62589;12.568;99.958;2023-04-03T09:50:18;100317.28;;;36.96;41.67
74230;BME280;62589;12.568;99.958;2023-04-03T09:52:48;100313.34;;;36.94;41.76
74230;BME280;62589;12.568;99.958;2023-04-03T09:55:23;100324.06;;;36.75;41.98
74230;BME280;62589;12.568;99.958;2023-04-03T09:58:04;100314.53;;;36.69;42.20
74230;BME280;62589;12.568;99.958;2023-04-03T10:00:55;100309.31;;;36.71;42.30
74230;BME280;62589;12.568;99.958;2023-04-03T10:03:28;100314.88;;;36.75;42.25
74230;BME280;62589;12.568;99.958;2023-04-03T10:05:56;100314.94;;;36.68;42.76
74230;BME280;62589;12.568;99.958;2023-04-03T10:08:41;100306.50;;;36.71;42.80
74230;BME280;62589;12.568;99.958;2023-04-03T10:11:14;100308.50;;;36.71;42.40
74230;BME280;62589;12.568;99.958;2023-04-03T10:14:02;100321.53;;;36.58;42.07
74230;BME280;62589;12.568;99.958;2023-04-03T10:16:41;100324.19;;;36.65;41.78
74230;BME280;62589;12.568;99.958;2023-04-03T10:22:37;100323.53;;;36.57;41.23
74230;BME280;62589;12.568;99.958;2023-04-03T10:25:36;100324.19;;;36.65;41.27
74230;BME280;62589;12.568;99.958;2023-04-03T10:40:36;100330.44;;;36.49;42.80
74230;BME280;62589;12.568;99.958;2023-04-03T10:43:21;100334.50;;;36.44;43.30
74230;BME280;62589;12.568;99.958;2023-04-03T10:46:09;100331.72;;;36.44;43.98
74230;BME280;62589;12.568;99.958;2023-04-03T10:54:44;100332.00;;;36.27;44.86
74230;BME280;62589;12.568;99.958;2023-04-03T10:57:14;100328.72;;;36.32;44.81
74230;BME280;62589;12.568;99.958;2023-04-03T10:59:59;100337.53;;;36.30;45.07
74230;BME280;62589;12.568;99.958;2023-04-03T11:02:37;100335.53;;;36.31;45.08
74230;BME280;62589;12.568;99.958;2023-04-03T11:05:18;100347.47;;;36.35;45.29
74230;BME280;62589;12.568;99.958;2023-04-03T11:07:51;100353.63;;;36.19;46.17
74230;BME280;62589;12.568;99.958;2023-04-03T11:13:24;100359.34;;;36.12;45.97
74230;BME280;62589;12.568;99.958;2023-04-03T11:15:53;100359.63;;;36.17;45.98
74230;BME280;62589;12.568;99.958;2023-04-03T11:21:26;100359.88;;;36.00;46.68
74230;BME280;62589;12.568;99.958;2023-04-03T11:23:57;100360.72;;;35.97;47.08
74230;BME280;62589;12.568;99.958;2023-04-03T11:26:30;100362.84;;;35.89;46.69
74230;BME280;62589;12.568;99.958;2023-04-03T11:29:08;100362.81;;;35.93;46.50
74230;BME280;62589;12.568;99.958;2023-04-03T11:32:08;100377.19;;;35.91;46.82
74230;BME280;62589;12.568;99.958;2023-04-03T11:34:39;100377.34;;;35.77;46.64
74230;BME280;62589;12.568;99.958;2023-04-03T11:37:34;100382.06;;;35.84;46.15
74230;BME280;62589;12.568;99.958;2023-04-03T11:43:07;100390.06;;;35.81;46.47
74230;BME280;62589;12.568;99.958;2023-04-03T11:45:40;100388.81;;;35.86;46.36
74230;BME280;62589;12.568;99.958;2023-04-03T11:48:45;100392.31;;;35.94;46.42
74230;BME280;62589;12.568;99.958;2023-04-03T11:51:38;100410.09;;;35.73;46.53
74230;BME280;62589;12.568;99.958;2023-04-03T11:54:35;100415.59;;;35.84;46.02
74230;BME280;62589;12.568;99.958;2023-04-03T12:00:00;100411.66;;;35.77;45.88
74230;BME280;62589;12.568;99.958;2023-04-03T12:02:36;100419.75;;;35.65;46.13
74230;BME280;62589;12.568;99.958;2023-04-03T12:05:28;100424.88;;;35.73;46.07
74230;BME280;62589;12.568;99.958;2023-04-03T12:14:13;100438.44;;;35.71;45.66
74230;BME280;62589;12.568;99.958;2023-04-03T12:16:47;100441.19;;;35.78;45.68
74230;BME280;62589;12.568;99.958;2023-04-03T12:19:34;100447.97;;;35.77;45.57
74230;BME280;62589;12.568;99.958;2023-04-03T12:22:07;100453.22;;;35.72;46.03
74230;BME280;62589;12.568;99.958;2023-04-03T12:24:53;100451.06;;;35.87;45.24
74230;BME280;62589;12.568;99.958;2023-04-03T12:27:28;100455.94;;;35.79;45.27
74230;BME280;62589;12.568;99.958;2023-04-03T12:30:18;100451.94;;;35.80;45.21
74230;BME280;62589;12.568;99.958;2023-04-03T12:33:13;100454.06;;;35.65;44.90
74230;BME280;62589;12.568;99.958;2023-04-03T12:36:03;100456.13;;;35.58;45.35
74230;BME280;62589;12.568;99.958;2023-04-03T12:38:49;100455.28;;;35.64;44.69
74230;BME280;62589;12.568;99.958;2023-04-03T12:41:49;100456.88;;;35.65;44.47
74230;BME280;62589;12.568;99.958;2023-04-03T12:47:23;100470.75;;;35.72;44.25
74230;BME280;62589;12.568;99.958;2023-04-03T12:49:52;100472.34;;;35.73;44.74
74230;BME280;62589;12.568;99.958;2023-04-03T12:52:36;100474.44;;;35.62;44.92
74230;BME280;62589;12.568;99.958;2023-04-03T12:55:13;100479.69;;;35.57;44.76
74230;BME280;62589;12.568;99.958;2023-04-03T12:57:41;100490.38;;;35.65;44.87
74230;BME280;62589;12.568;99.958;2023-04-03T13:00:20;100487.59;;;35.65;44.71
74230;BME280;62589;12.568;99.958;2023-04-03T13:02:47;100497.94;;;35.68;44.57
74230;BME280;62589;12.568;99.958;2023-04-03T13:05:17;100503.47;;;35.72;44.41
74230;BME280;62589;12.568;99.958;2023-04-03T13:07:51;100509.81;;;35.76;44.62
74230;BME280;62589;12.568;99.958;2023-04-03T13:10:19;100499.84;;;35.78;44.45
74230;BME280;62589;12.568;99.958;2023-04-03T13:15:47;100501.34;;;35.87;44.27
74230;BME280;62589;12.568;99.958;2023-04-03T13:18:28;100515.31;;;35.87;44.22
74230;BME280;62589;12.568;99.958;2023-04-03T13:21:17;100521.25;;;35.92;44.24
74230;BME280;62589;12.568;99.958;2023-04-03T13:23:48;100526.50;;;35.87;44.31
74230;BME280;62589;12.568;99.958;2023-04-03T13:26:18;100536.91;;;35.83;44.65
74230;BME280;62589;12.568;99.958;2023-04-03T13:28:46;100539.28;;;35.84;44.52
74230;BME280;62589;12.568;99.958;2023-04-03T13:31:22;100544.94;;;35.77;44.87
74230;BME280;62589;12.568;99.958;2023-04-03T13:36:38;100551.78;;;35.69;44.86
74230;BME280;62589;12.568;99.958;2023-04-03T13:39:27;100562.88;;;35.76;44.91
74230;BME280;62589;12.568;99.958;2023-04-03T13:42:00;100562.94;;;35.72;45.11
74230;BME280;62589;12.568;99.958;2023-04-03T13:44:35;100578.09;;;35.71;44.92
74230;BME280;62589;12.568;99.958;2023-04-03T13:47:21;100581.25;;;35.77;44.96
74230;BME280;62589;12.568;99.958;2023-04-03T13:50:04;100589.63;;;35.77;44.84
74230;BME280;62589;12.568;99.958;2023-04-03T13:55:33;100590.09;;;35.68;45.37
74230;BME280;62589;12.568;99.958;2023-04-03T13:58:27;100593.66;;;35.72;45.34
74230;BME280;62589;12.568;99.958;2023-04-03T14:01:09;100597.28;;;35.66;45.69
74230;BME280;62589;12.568;99.958;2023-04-03T14:03:56;100598.84;;;35.74;45.50
74230;BME280;62589;12.568;99.958;2023-04-03T14:06:23;100605.25;;;35.71;45.54
74230;BME280;62589;12.568;99.958;2023-04-03T14:08:51;100603.28;;;35.64;46.28
74230;BME280;62589;12.568;99.958;2023-04-03T14:11:22;100608.50;;;35.62;46.04
74230;BME280;62589;12.568;99.958;2023-04-03T14:13:50;100612.06;;;35.66;46.18
74230;BME280;62589;12.568;99.958;2023-04-03T14:16:21;100612.88;;;35.63;46.54
74230;BME280;62589;12.568;99.958;2023-04-03T14:18:49;100612.91;;;35.60;46.63
74230;BME280;62589;12.568;99.958;2023-04-03T14:21:18;100616.56;;;35.53;47.08
74230;BME280;62589;12.568;99.958;2023-04-03T14:23:45;100610.13;;;35.56;46.85